CES2043 ZSQD-RKSI
Flight info
| Callsign | CES2043 |
|---|---|
| Flight time | 1h 0m |
| Altitude | 29100 |
| Route | LAT81D LATUX W209 AGAVO/N0437F292 Y644 REBIT REBIT1Y |
| Aircraft | A321/M-SDE3FGHIRWY/LB1 |
Departure
| Time | 2026-04-22 01:59 |
|---|---|
| Airport | Qingdao Jiaodong International Airport (ZSQD) |
Arrival
| Time | 2026-04-22 02:59 |
|---|---|
| Airport | Incheon International Airport (RKSI) |
| Time | Latitude | Longitude | Altitude | Speed | Heading |
|---|---|---|---|---|---|
| 2026-04-22 01:28 | 36.36486 | 120.08993 | 37 ft | 0 kts | 132° |
| 2026-04-22 01:44 | 36.36496 | 120.08978 | 36 ft | 4 kts | 122° |
| 2026-04-22 01:45 | 36.36505 | 120.08949 | 38 ft | 4 kts | 88° |
| 2026-04-22 01:45 | 36.36498 | 120.08921 | 36 ft | 2 kts | 43° |
| 2026-04-22 01:45 | 36.36493 | 120.08916 | 34 ft | 0 kts | 43° |
| 2026-04-22 01:52 | 36.36496 | 120.08919 | 36 ft | 2 kts | 43° |
| 2026-04-22 01:52 | 36.36519 | 120.08945 | 36 ft | 7 kts | 43° |
| 2026-04-22 01:52 | 36.36559 | 120.08983 | 36 ft | 8 kts | 21° |
| 2026-04-22 01:52 | 36.36617 | 120.08973 | 38 ft | 9 kts | 343° |
| 2026-04-22 01:53 | 36.36684 | 120.08954 | 38 ft | 11 kts | 0° |
| 2026-04-22 01:53 | 36.36755 | 120.09014 | 38 ft | 13 kts | 42° |
| 2026-04-22 01:53 | 36.36822 | 120.09102 | 37 ft | 15 kts | 62° |
| 2026-04-22 01:53 | 36.36857 | 120.09225 | 37 ft | 16 kts | 72° |
| 2026-04-22 01:54 | 36.36891 | 120.09359 | 37 ft | 17 kts | 72° |
| 2026-04-22 01:54 | 36.36935 | 120.09441 | 37 ft | 11 kts | 9° |
| 2026-04-22 01:54 | 36.36986 | 120.09431 | 37 ft | 12 kts | 345° |
| 2026-04-22 01:54 | 36.37070 | 120.09399 | 37 ft | 13 kts | 341° |
| 2026-04-22 01:55 | 36.37161 | 120.09362 | 37 ft | 14 kts | 342° |
| 2026-04-22 01:55 | 36.37260 | 120.09324 | 37 ft | 16 kts | 343° |
| 2026-04-22 01:55 | 36.37367 | 120.09282 | 36 ft | 17 kts | 343° |
| 2026-04-22 01:55 | 36.37480 | 120.09237 | 37 ft | 18 kts | 342° |
| 2026-04-22 01:56 | 36.37600 | 120.09190 | 37 ft | 18 kts | 342° |
| 2026-04-22 01:56 | 36.37725 | 120.09141 | 36 ft | 19 kts | 342° |
| 2026-04-22 01:56 | 36.37856 | 120.09089 | 37 ft | 20 kts | 342° |
| 2026-04-22 01:56 | 36.37987 | 120.09038 | 37 ft | 18 kts | 341° |
| 2026-04-22 01:57 | 36.38077 | 120.09033 | 37 ft | 10 kts | 48° |
| 2026-04-22 01:57 | 36.38104 | 120.09122 | 37 ft | 12 kts | 74° |
| 2026-04-22 01:57 | 36.38115 | 120.09224 | 38 ft | 12 kts | 91° |
| 2026-04-22 01:57 | 36.38102 | 120.09303 | 38 ft | 7 kts | 105° |
| 2026-04-22 01:58 | 36.38085 | 120.09336 | 37 ft | 4 kts | 157° |
| 2026-04-22 01:58 | 36.38054 | 120.09345 | 39 ft | 10 kts | 165° |
| 2026-04-22 01:58 | 36.37841 | 120.09434 | 39 ft | 71 kts | 162° |
| 2026-04-22 01:58 | 36.37092 | 120.09727 | 37 ft | 151 kts | 162° |
| 2026-04-22 01:59 | 36.35941 | 120.10180 | 465 ft | 178 kts | 161° |
| 2026-04-22 01:59 | 36.34781 | 120.10625 | 1628 ft | 171 kts | 158° |
| 2026-04-22 01:59 | 36.33736 | 120.11262 | 2254 ft | 173 kts | 146° |
| 2026-04-22 01:59 | 36.32668 | 120.12132 | 2458 ft | 195 kts | 144° |
| 2026-04-22 02:00 | 36.31477 | 120.13147 | 2664 ft | 221 kts | 144° |
| 2026-04-22 02:00 | 36.30144 | 120.14275 | 3067 ft | 241 kts | 144° |
| 2026-04-22 02:00 | 36.28727 | 120.15455 | 3802 ft | 248 kts | 144° |
| 2026-04-22 02:00 | 36.27490 | 120.16937 | 4514 ft | 251 kts | 116° |
| 2026-04-22 02:01 | 36.27154 | 120.19038 | 5227 ft | 254 kts | 82° |
| 2026-04-22 02:01 | 36.27540 | 120.21184 | 6031 ft | 256 kts | 73° |
| 2026-04-22 02:01 | 36.28095 | 120.23288 | 6868 ft | 257 kts | 70° |
| 2026-04-22 02:01 | 36.28696 | 120.25384 | 7652 ft | 260 kts | 70° |
| 2026-04-22 02:02 | 36.29302 | 120.27514 | 8405 ft | 264 kts | 70° |
| 2026-04-22 02:02 | 36.29902 | 120.29687 | 9149 ft | 268 kts | 71° |
| 2026-04-22 02:02 | 36.30402 | 120.31932 | 9869 ft | 274 kts | 84° |
| 2026-04-22 02:02 | 36.30100 | 120.34273 | 10468 ft | 283 kts | 114° |
| 2026-04-22 02:03 | 36.28823 | 120.36157 | 11061 ft | 295 kts | 145° |
| 2026-04-22 02:03 | 36.26896 | 120.37204 | 11409 ft | 314 kts | 159° |
| 2026-04-22 02:03 | 36.24770 | 120.38065 | 11568 ft | 337 kts | 161° |
| 2026-04-22 02:03 | 36.22454 | 120.38931 | 11747 ft | 357 kts | 162° |
| 2026-04-22 02:04 | 36.17596 | 120.40711 | 12887 ft | 369 kts | 163° |
| 2026-04-22 02:04 | 36.15120 | 120.41642 | 13478 ft | 375 kts | 164° |
| 2026-04-22 02:04 | 36.12609 | 120.42604 | 14092 ft | 379 kts | 164° |
| 2026-04-22 02:05 | 36.10086 | 120.43582 | 14651 ft | 383 kts | 164° |
| 2026-04-22 02:05 | 36.07532 | 120.44577 | 15222 ft | 387 kts | 164° |
| 2026-04-22 02:05 | 36.04944 | 120.45584 | 15802 ft | 392 kts | 165° |
| 2026-04-22 02:05 | 36.02324 | 120.46601 | 16353 ft | 397 kts | 165° |
| 2026-04-22 02:06 | 35.99670 | 120.47627 | 16888 ft | 402 kts | 165° |
| 2026-04-22 02:06 | 35.96986 | 120.48665 | 17430 ft | 406 kts | 165° |
| 2026-04-22 02:06 | 35.94329 | 120.49941 | 17960 ft | 413 kts | 159° |
| 2026-04-22 02:06 | 35.91687 | 120.51394 | 18452 ft | 418 kts | 159° |
| 2026-04-22 02:07 | 35.89018 | 120.52864 | 18891 ft | 422 kts | 159° |
| 2026-04-22 02:07 | 35.86362 | 120.54329 | 19351 ft | 425 kts | 159° |
| 2026-04-22 02:07 | 35.83618 | 120.55840 | 19837 ft | 429 kts | 160° |
| 2026-04-22 02:07 | 35.80876 | 120.57345 | 20321 ft | 432 kts | 160° |
| 2026-04-22 02:08 | 35.78151 | 120.58832 | 20795 ft | 436 kts | 160° |
| 2026-04-22 02:08 | 35.75365 | 120.60350 | 21272 ft | 439 kts | 160° |
| 2026-04-22 02:08 | 35.72565 | 120.61900 | 21746 ft | 444 kts | 159° |
| 2026-04-22 02:08 | 35.69784 | 120.63603 | 22195 ft | 449 kts | 157° |
| 2026-04-22 02:09 | 35.67030 | 120.65441 | 22632 ft | 453 kts | 155° |
| 2026-04-22 02:09 | 35.64279 | 120.67371 | 23048 ft | 457 kts | 155° |
| 2026-04-22 02:09 | 35.61521 | 120.69332 | 23441 ft | 460 kts | 154° |
| 2026-04-22 02:09 | 35.58733 | 120.71301 | 23816 ft | 463 kts | 155° |
| 2026-04-22 02:10 | 35.56066 | 120.73557 | 24168 ft | 472 kts | 142° |
| 2026-04-22 02:10 | 35.53882 | 120.76618 | 24523 ft | 481 kts | 125° |
| 2026-04-22 02:10 | 35.52446 | 120.80341 | 24867 ft | 487 kts | 107° |
| 2026-04-22 02:10 | 35.51917 | 120.84438 | 25189 ft | 489 kts | 89° |
| 2026-04-22 02:11 | 35.52340 | 120.88563 | 25493 ft | 487 kts | 71° |
| 2026-04-22 02:11 | 35.53589 | 120.92412 | 25793 ft | 486 kts | 62° |
| 2026-04-22 02:11 | 35.55011 | 120.96195 | 26123 ft | 489 kts | 62° |
| 2026-04-22 02:11 | 35.56439 | 121.00007 | 26405 ft | 493 kts | 62° |
| 2026-04-22 02:12 | 35.57873 | 121.03854 | 26699 ft | 497 kts | 62° |
| 2026-04-22 02:12 | 35.59313 | 121.07729 | 27003 ft | 500 kts | 62° |
| 2026-04-22 02:12 | 35.60759 | 121.11633 | 27298 ft | 503 kts | 62° |
| 2026-04-22 02:12 | 35.62213 | 121.15563 | 27592 ft | 507 kts | 63° |
| 2026-04-22 02:13 | 35.63652 | 121.19468 | 27874 ft | 510 kts | 63° |
| 2026-04-22 02:13 | 35.65140 | 121.23513 | 28159 ft | 513 kts | 63° |
| 2026-04-22 02:13 | 35.66593 | 121.27458 | 28426 ft | 516 kts | 63° |
| 2026-04-22 02:13 | 35.68079 | 121.31488 | 28718 ft | 519 kts | 63° |
| 2026-04-22 02:14 | 35.69572 | 121.35543 | 28975 ft | 522 kts | 63° |
| 2026-04-22 02:14 | 35.71078 | 121.39635 | 29143 ft | 524 kts | 63° |
| 2026-04-22 02:14 | 35.72560 | 121.43670 | 29182 ft | 513 kts | 63° |
| 2026-04-22 02:15 | 35.75470 | 121.51627 | 29175 ft | 508 kts | 63° |
| 2026-04-22 02:15 | 35.78366 | 121.59558 | 29173 ft | 507 kts | 63° |
| 2026-04-22 02:16 | 35.81253 | 121.67496 | 29167 ft | 508 kts | 63° |
| 2026-04-22 02:16 | 35.84145 | 121.75449 | 29173 ft | 508 kts | 63° |
| 2026-04-22 02:17 | 35.87030 | 121.83401 | 29173 ft | 509 kts | 63° |
| 2026-04-22 02:17 | 35.89918 | 121.91362 | 29181 ft | 509 kts | 63° |
| 2026-04-22 02:18 | 35.92795 | 121.99357 | 29197 ft | 510 kts | 63° |
| 2026-04-22 02:18 | 35.95664 | 122.07365 | 29185 ft | 510 kts | 63° |
| 2026-04-22 02:19 | 35.98534 | 122.15371 | 29172 ft | 510 kts | 63° |
| 2026-04-22 02:19 | 36.01390 | 122.23337 | 29174 ft | 510 kts | 64° |
| 2026-04-22 02:20 | 36.04253 | 122.31363 | 29199 ft | 511 kts | 63° |
| 2026-04-22 02:20 | 36.07112 | 122.39401 | 29183 ft | 511 kts | 64° |
| 2026-04-22 02:21 | 36.09965 | 122.47446 | 29179 ft | 511 kts | 64° |
| 2026-04-22 02:21 | 36.12815 | 122.55495 | 29177 ft | 511 kts | 64° |
| 2026-04-22 02:22 | 36.15664 | 122.63539 | 29192 ft | 511 kts | 63° |
| 2026-04-22 02:22 | 36.18509 | 122.71595 | 29184 ft | 511 kts | 64° |
| 2026-04-22 02:23 | 36.21335 | 122.79671 | 29177 ft | 511 kts | 64° |
| 2026-04-22 02:23 | 36.24154 | 122.87738 | 29178 ft | 511 kts | 64° |
| 2026-04-22 02:24 | 36.26961 | 122.95766 | 29165 ft | 511 kts | 64° |
| 2026-04-22 02:24 | 36.29785 | 123.03854 | 29172 ft | 511 kts | 64° |
| 2026-04-22 02:25 | 36.32608 | 123.11953 | 29178 ft | 512 kts | 64° |
| 2026-04-22 02:25 | 36.35427 | 123.20066 | 29169 ft | 512 kts | 64° |
| 2026-04-22 02:26 | 36.38230 | 123.28204 | 29205 ft | 513 kts | 64° |
| 2026-04-22 02:26 | 36.41838 | 123.35714 | 29199 ft | 503 kts | 45° |
| 2026-04-22 02:27 | 36.46909 | 123.41459 | 29197 ft | 486 kts | 26° |
| 2026-04-22 02:27 | 36.52493 | 123.46111 | 29216 ft | 486 kts | 27° |
| 2026-04-22 02:28 | 36.58101 | 123.50835 | 29204 ft | 487 kts | 27° |
| 2026-04-22 02:28 | 36.63694 | 123.55565 | 29197 ft | 486 kts | 27° |
| 2026-04-22 02:29 | 36.69294 | 123.60301 | 29201 ft | 485 kts | 26° |
| 2026-04-22 02:29 | 36.74883 | 123.64968 | 29191 ft | 483 kts | 26° |
| 2026-04-22 02:30 | 36.80479 | 123.69615 | 29172 ft | 483 kts | 26° |
| 2026-04-22 02:30 | 36.86082 | 123.74253 | 29205 ft | 484 kts | 25° |
| 2026-04-22 02:31 | 36.91694 | 123.78940 | 29200 ft | 485 kts | 26° |
| 2026-04-22 02:31 | 36.97282 | 123.83665 | 29197 ft | 485 kts | 26° |
| 2026-04-22 02:32 | 37.02872 | 123.88380 | 29222 ft | 484 kts | 25° |
| 2026-04-22 02:32 | 37.08475 | 123.93080 | 29203 ft | 484 kts | 25° |
| 2026-04-22 02:32 | 37.11182 | 123.95648 | 29184 ft | 494 kts | 36° |
| 2026-04-22 02:33 | 37.13510 | 123.98869 | 29176 ft | 505 kts | 49° |
| 2026-04-22 02:33 | 37.15322 | 124.02675 | 29189 ft | 514 kts | 61° |
| 2026-04-22 02:33 | 37.16544 | 124.06912 | 29172 ft | 520 kts | 74° |
| 2026-04-22 02:33 | 37.17098 | 124.11402 | 29170 ft | 523 kts | 86° |
| 2026-04-22 02:34 | 37.17280 | 124.15948 | 29174 ft | 523 kts | 87° |
| 2026-04-22 02:34 | 37.17611 | 124.25081 | 29162 ft | 524 kts | 87° |
| 2026-04-22 02:35 | 37.17872 | 124.34165 | 29173 ft | 525 kts | 88° |
| 2026-04-22 02:35 | 37.18066 | 124.43331 | 29183 ft | 525 kts | 88° |
| 2026-04-22 02:36 | 37.18265 | 124.52484 | 29184 ft | 526 kts | 88° |
| 2026-04-22 02:36 | 37.18484 | 124.61662 | 29176 ft | 527 kts | 88° |
| 2026-04-22 02:37 | 37.18688 | 124.70915 | 29197 ft | 539 kts | 88° |
| 2026-04-22 02:37 | 37.18880 | 124.80394 | 29193 ft | 545 kts | 88° |
| 2026-04-22 02:38 | 37.19068 | 124.89878 | 29047 ft | 539 kts | 88° |
| 2026-04-22 02:38 | 37.19160 | 124.94504 | 29101 ft | 526 kts | 88° |
| 2026-04-22 02:38 | 37.19249 | 124.99138 | 29095 ft | 537 kts | 88° |
| 2026-04-22 02:39 | 37.19429 | 125.08666 | 28378 ft | 556 kts | 88° |
| 2026-04-22 02:39 | 37.19518 | 125.13524 | 27307 ft | 550 kts | 88° |
| 2026-04-22 02:39 | 37.19597 | 125.18152 | 26483 ft | 529 kts | 89° |
| 2026-04-22 02:39 | 37.19670 | 125.22699 | 25476 ft | 515 kts | 89° |
| 2026-04-22 02:40 | 37.19743 | 125.27132 | 24440 ft | 502 kts | 89° |
| 2026-04-22 02:40 | 37.19816 | 125.31455 | 23403 ft | 490 kts | 89° |
| 2026-04-22 02:40 | 37.19887 | 125.35679 | 22225 ft | 479 kts | 89° |
| 2026-04-22 02:40 | 37.19955 | 125.39812 | 21109 ft | 468 kts | 89° |
| 2026-04-22 02:41 | 37.20022 | 125.43858 | 20062 ft | 458 kts | 89° |
| 2026-04-22 02:41 | 37.19911 | 125.47806 | 19077 ft | 448 kts | 98° |
| 2026-04-22 02:41 | 37.19253 | 125.51542 | 18421 ft | 427 kts | 111° |
| 2026-04-22 02:41 | 37.18285 | 125.54921 | 18044 ft | 401 kts | 112° |
| 2026-04-22 02:42 | 37.17364 | 125.58154 | 17336 ft | 393 kts | 111° |
| 2026-04-22 02:42 | 37.16451 | 125.61407 | 16249 ft | 395 kts | 110° |
| 2026-04-22 02:42 | 37.15553 | 125.64625 | 15219 ft | 388 kts | 110° |
| 2026-04-22 02:42 | 37.14673 | 125.67764 | 14470 ft | 372 kts | 110° |
| 2026-04-22 02:43 | 37.13829 | 125.70758 | 13938 ft | 358 kts | 109° |
| 2026-04-22 02:43 | 37.13281 | 125.72697 | 13583 ft | 354 kts | 109° |
| 2026-04-22 02:43 | 37.12468 | 125.75560 | 13123 ft | 345 kts | 110° |
| 2026-04-22 02:43 | 37.11667 | 125.78362 | 12666 ft | 337 kts | 109° |
| 2026-04-22 02:44 | 37.11068 | 125.81170 | 12228 ft | 333 kts | 99° |
| 2026-04-22 02:44 | 37.10796 | 125.84041 | 11808 ft | 330 kts | 95° |
| 2026-04-22 02:44 | 37.10553 | 125.86887 | 11378 ft | 327 kts | 95° |
| 2026-04-22 02:44 | 37.10309 | 125.89711 | 10956 ft | 325 kts | 95° |
| 2026-04-22 02:45 | 37.10063 | 125.92518 | 10541 ft | 323 kts | 95° |
| 2026-04-22 02:45 | 37.09819 | 125.95275 | 10344 ft | 313 kts | 95° |
| 2026-04-22 02:45 | 37.09580 | 125.97932 | 10222 ft | 301 kts | 95° |
| 2026-04-22 02:45 | 37.09350 | 126.00504 | 9983 ft | 295 kts | 95° |
| 2026-04-22 02:46 | 37.09254 | 126.01836 | 9889 ft | 290 kts | 90° |
| 2026-04-22 02:46 | 37.09247 | 126.02448 | 9837 ft | 289 kts | 88° |
| 2026-04-22 02:46 | 37.09291 | 126.04967 | 9691 ft | 289 kts | 88° |
| 2026-04-22 02:47 | 37.09323 | 126.07475 | 9387 ft | 287 kts | 88° |
| 2026-04-22 02:47 | 37.09345 | 126.09958 | 9045 ft | 285 kts | 88° |
| 2026-04-22 02:47 | 37.09364 | 126.12433 | 8713 ft | 283 kts | 88° |
| 2026-04-22 02:47 | 37.09383 | 126.14898 | 8373 ft | 281 kts | 88° |
| 2026-04-22 02:48 | 37.09404 | 126.17342 | 8037 ft | 280 kts | 88° |
| 2026-04-22 02:48 | 37.09429 | 126.19768 | 7704 ft | 278 kts | 88° |
| 2026-04-22 02:48 | 37.09454 | 126.22180 | 7375 ft | 276 kts | 88° |
| 2026-04-22 02:48 | 37.09540 | 126.24574 | 7053 ft | 274 kts | 80° |
| 2026-04-22 02:49 | 37.10027 | 126.26865 | 6711 ft | 271 kts | 68° |
| 2026-04-22 02:49 | 37.10694 | 126.29074 | 6381 ft | 270 kts | 69° |
| 2026-04-22 02:49 | 37.11352 | 126.31269 | 6040 ft | 269 kts | 69° |
| 2026-04-22 02:49 | 37.12006 | 126.33454 | 5706 ft | 267 kts | 69° |
| 2026-04-22 02:50 | 37.12657 | 126.35634 | 5380 ft | 267 kts | 70° |
| 2026-04-22 02:50 | 37.13304 | 126.37813 | 5047 ft | 267 kts | 70° |
| 2026-04-22 02:50 | 37.13949 | 126.39988 | 4707 ft | 266 kts | 70° |
| 2026-04-22 02:50 | 37.14586 | 126.42136 | 4393 ft | 266 kts | 70° |
| 2026-04-22 02:51 | 37.15228 | 126.44304 | 4069 ft | 265 kts | 71° |
| 2026-04-22 02:51 | 37.15869 | 126.46474 | 3745 ft | 265 kts | 71° |
| 2026-04-22 02:51 | 37.16511 | 126.48641 | 3422 ft | 265 kts | 71° |
| 2026-04-22 02:51 | 37.17150 | 126.50804 | 3089 ft | 264 kts | 71° |
| 2026-04-22 02:52 | 37.17785 | 126.52957 | 2769 ft | 263 kts | 71° |
| 2026-04-22 02:52 | 37.18588 | 126.55013 | 2488 ft | 262 kts | 56° |
| 2026-04-22 02:52 | 37.19657 | 126.56874 | 2423 ft | 264 kts | 55° |
| 2026-04-22 02:52 | 37.20723 | 126.58752 | 2363 ft | 265 kts | 54° |
| 2026-04-22 02:53 | 37.22044 | 126.60347 | 2296 ft | 265 kts | 28° |
| 2026-04-22 02:53 | 37.23774 | 126.60904 | 2230 ft | 247 kts | 355° |
| 2026-04-22 02:53 | 37.25345 | 126.60401 | 2173 ft | 227 kts | 328° |
| 2026-04-22 02:53 | 37.26615 | 126.59325 | 2133 ft | 214 kts | 322° |
| 2026-04-22 02:54 | 37.27810 | 126.58257 | 2055 ft | 208 kts | 322° |
| 2026-04-22 02:54 | 37.28990 | 126.57210 | 1987 ft | 207 kts | 322° |
| 2026-04-22 02:54 | 37.30164 | 126.56171 | 1941 ft | 206 kts | 322° |
| 2026-04-22 02:54 | 37.31329 | 126.55139 | 1911 ft | 200 kts | 322° |
| 2026-04-22 02:55 | 37.32413 | 126.54183 | 1857 ft | 180 kts | 322° |
| 2026-04-22 02:55 | 37.33387 | 126.53321 | 1814 ft | 163 kts | 321° |
| 2026-04-22 02:55 | 37.34307 | 126.52505 | 1750 ft | 160 kts | 321° |
| 2026-04-22 02:55 | 37.34573 | 126.52270 | 1688 ft | 159 kts | 322° |
| 2026-04-22 02:56 | 37.34960 | 126.51927 | 1639 ft | 150 kts | 324° |
| 2026-04-22 02:56 | 37.35760 | 126.51217 | 1580 ft | 145 kts | 324° |
| 2026-04-22 02:56 | 37.36564 | 126.50504 | 1515 ft | 143 kts | 324° |
| 2026-04-22 02:56 | 37.37371 | 126.49788 | 1508 ft | 142 kts | 324° |
| 2026-04-22 02:57 | 37.38179 | 126.49071 | 1413 ft | 142 kts | 324° |
| 2026-04-22 02:57 | 37.38994 | 126.48348 | 1265 ft | 141 kts | 324° |
| 2026-04-22 02:57 | 37.39798 | 126.47635 | 1089 ft | 141 kts | 324° |
| 2026-04-22 02:57 | 37.40588 | 126.46933 | 916 ft | 141 kts | 324° |
| 2026-04-22 02:58 | 37.41386 | 126.46226 | 730 ft | 140 kts | 325° |
| 2026-04-22 02:58 | 37.42180 | 126.45519 | 550 ft | 140 kts | 324° |
| 2026-04-22 02:58 | 37.42973 | 126.44816 | 368 ft | 140 kts | 324° |
| 2026-04-22 02:58 | 37.43765 | 126.44111 | 175 ft | 139 kts | 324° |
| 2026-04-22 02:59 | 37.44555 | 126.43414 | 41 ft | 133 kts | 324° |
| 2026-04-22 02:59 | 37.45208 | 126.42830 | 33 ft | 93 kts | 324° |
| 2026-04-22 02:59 | 37.45599 | 126.42478 | 33 ft | 52 kts | 325° |
| 2026-04-22 02:59 | 37.45875 | 126.42272 | 33 ft | 39 kts | 343° |
| 2026-04-22 03:00 | 37.46085 | 126.42231 | 33 ft | 28 kts | 354° |
| 2026-04-22 03:00 | 37.46264 | 126.42158 | 33 ft | 26 kts | 327° |
| 2026-04-22 03:00 | 37.46390 | 126.42043 | 33 ft | 21 kts | 325° |
| 2026-04-22 03:00 | 37.46497 | 126.41983 | 33 ft | 14 kts | 19° |
| 2026-04-22 03:01 | 37.46552 | 126.42078 | 33 ft | 14 kts | 52° |
| 2026-04-22 03:01 | 37.46618 | 126.42184 | 33 ft | 16 kts | 52° |
| 2026-04-22 03:01 | 37.46694 | 126.42299 | 32 ft | 18 kts | 38° |
| 2026-04-22 03:01 | 37.46787 | 126.42381 | 33 ft | 17 kts | 55° |
| 2026-04-22 03:02 | 37.46857 | 126.42504 | 33 ft | 17 kts | 54° |
| 2026-04-22 03:02 | 37.46889 | 126.42635 | 32 ft | 14 kts | 64° |
| 2026-04-22 03:02 | 37.46924 | 126.42686 | 32 ft | 1 kts | 47° |
| 2026-04-22 03:02 | 37.46927 | 126.42689 | 32 ft | 0 kts | 47° |